createdAt,value
2022-10-28T00:02:19.264Z,15.87
2022-10-28T00:04:45.562Z,15.85
2022-10-28T00:07:11.897Z,15.83
2022-10-28T00:09:38.269Z,15.79
2022-10-28T00:12:04.584Z,15.76
2022-10-28T00:14:30.929Z,15.72
2022-10-28T00:16:57.272Z,15.66
2022-10-28T00:19:23.637Z,15.63
2022-10-28T00:21:49.972Z,15.59
2022-10-28T00:24:16.317Z,15.56
2022-10-28T00:26:42.659Z,15.55
2022-10-28T00:29:08.978Z,15.53
2022-10-28T00:31:35.301Z,15.48
2022-10-28T00:34:01.625Z,15.46
2022-10-28T00:36:27.968Z,15.44
2022-10-28T00:38:54.316Z,15.43
2022-10-28T00:41:20.668Z,15.47
2022-10-28T00:43:47.015Z,15.53
2022-10-28T00:46:13.333Z,15.47
2022-10-28T00:48:39.681Z,15.40
2022-10-28T00:51:06.021Z,15.38
2022-10-28T00:53:32.350Z,15.34
2022-10-28T00:55:58.758Z,15.33
2022-10-28T00:58:25.092Z,15.28
2022-10-28T01:00:51.435Z,15.33
2022-10-28T01:03:17.799Z,15.34
2022-10-28T01:05:44.141Z,15.50
2022-10-28T01:08:10.458Z,15.64
2022-10-28T01:10:36.803Z,15.50
2022-10-28T01:13:03.157Z,15.35
2022-10-28T01:15:29.486Z,15.19
2022-10-28T01:17:55.851Z,15.03
2022-10-28T01:20:22.187Z,14.97
2022-10-28T01:22:48.512Z,14.94
2022-10-28T01:25:14.849Z,14.91
2022-10-28T01:27:41.194Z,14.87
2022-10-28T01:30:07.531Z,14.85
2022-10-28T01:32:33.876Z,14.82
2022-10-28T01:35:00.213Z,14.86
2022-10-28T01:37:26.561Z,14.90
2022-10-28T01:39:52.878Z,14.83
2022-10-28T01:42:19.256Z,14.83
2022-10-28T01:44:45.587Z,14.86
2022-10-28T01:47:11.932Z,14.74
2022-10-28T01:49:38.265Z,14.66
2022-10-28T01:52:04.589Z,14.61
2022-10-28T01:54:30.949Z,14.59
2022-10-28T01:56:57.294Z,14.54
2022-10-28T01:59:23.639Z,14.54
2022-10-28T02:01:50.044Z,14.48
2022-10-28T02:04:16.323Z,14.40
2022-10-28T02:06:42.648Z,14.36
2022-10-28T02:09:08.960Z,14.32
2022-10-28T02:11:35.320Z,14.31
2022-10-28T02:14:01.663Z,14.30
2022-10-28T02:16:27.983Z,14.23
2022-10-28T02:18:54.365Z,14.17
2022-10-28T02:21:20.698Z,14.13
2022-10-28T02:23:47.031Z,14.12
2022-10-28T02:26:13.376Z,14.11
2022-10-28T02:28:39.715Z,14.06
2022-10-28T02:31:06.057Z,14.01
2022-10-28T02:33:32.373Z,13.97
2022-10-28T02:35:58.753Z,13.91
2022-10-28T02:38:25.067Z,13.90
2022-10-28T02:43:17.748Z,13.87
2022-10-28T02:45:44.083Z,13.86
2022-10-28T02:48:10.440Z,13.82
2022-10-28T02:50:36.763Z,13.78
2022-10-28T02:53:03.083Z,13.76
2022-10-28T02:55:29.426Z,13.72
2022-10-28T02:57:55.961Z,13.69
2022-10-28T03:00:22.071Z,13.66
2022-10-28T03:02:48.413Z,13.70
2022-10-28T03:05:14.768Z,13.69
2022-10-28T03:07:41.105Z,13.66
2022-10-28T03:10:07.441Z,13.61
2022-10-28T03:12:33.775Z,13.57
2022-10-28T03:15:00.130Z,13.57
2022-10-28T03:17:26.456Z,13.60
2022-10-28T03:19:52.793Z,13.56
2022-10-28T03:22:19.113Z,13.54
2022-10-28T03:24:45.436Z,13.48
2022-10-28T03:27:11.810Z,13.44
2022-10-28T03:29:42.052Z,13.38
2022-10-28T03:32:04.486Z,13.33
2022-10-28T03:34:30.839Z,13.28
2022-10-28T03:36:57.183Z,13.29
2022-10-28T03:39:23.498Z,13.28
2022-10-28T03:41:50.253Z,13.25
2022-10-28T03:44:16.662Z,13.26
2022-10-28T03:46:43.048Z,13.22
2022-10-28T03:49:09.371Z,13.18
2022-10-28T03:51:35.704Z,13.17
2022-10-28T03:54:02.051Z,13.14
2022-10-28T03:56:28.402Z,13.12
2022-10-28T03:58:54.764Z,13.10
2022-10-28T04:01:21.258Z,13.08
2022-10-28T04:03:47.447Z,13.06
2022-10-28T04:06:13.794Z,13.02
2022-10-28T04:08:40.141Z,13.01
2022-10-28T04:11:06.465Z,13.02
2022-10-28T04:13:32.789Z,12.98
2022-10-28T04:15:59.110Z,12.97
2022-10-28T04:18:25.473Z,12.97
2022-10-28T04:20:51.838Z,12.99
2022-10-28T04:23:18.153Z,12.99
2022-10-28T04:25:44.542Z,12.96
2022-10-28T04:28:10.877Z,12.90
2022-10-28T04:30:37.203Z,12.86
2022-10-28T04:33:03.545Z,12.83
2022-10-28T04:35:29.868Z,12.83
2022-10-28T04:37:56.555Z,12.91
2022-10-28T04:40:22.585Z,12.98
2022-10-28T04:42:48.921Z,13.05
2022-10-28T04:45:15.307Z,13.07
2022-10-28T04:47:41.661Z,13.11
2022-10-28T04:50:07.996Z,13.13
2022-10-28T04:52:35.233Z,13.09
2022-10-28T04:55:01.603Z,13.02
2022-10-28T04:57:27.933Z,12.93
2022-10-28T04:59:54.282Z,12.90
2022-10-28T05:02:20.676Z,12.86
2022-10-28T05:04:46.956Z,12.83
2022-10-28T05:07:13.271Z,12.83
2022-10-28T05:09:39.614Z,12.86
2022-10-28T05:12:05.939Z,12.88
2022-10-28T05:14:32.279Z,12.93
2022-10-28T05:16:58.617Z,12.99
2022-10-28T05:19:24.951Z,13.08
2022-10-28T05:21:51.289Z,13.14
2022-10-28T05:24:17.668Z,13.23
2022-10-28T05:26:43.988Z,13.33
2022-10-28T05:29:10.334Z,13.43
2022-10-28T05:31:36.654Z,13.56
2022-10-28T05:34:02.975Z,13.70
2022-10-28T05:36:29.378Z,13.77
2022-10-28T05:38:55.718Z,13.89
2022-10-28T05:41:23.375Z,14.05
2022-10-28T05:43:48.396Z,14.19
2022-10-28T05:46:14.729Z,14.34
2022-10-28T05:48:41.068Z,14.50
2022-10-28T05:51:07.443Z,14.64
2022-10-28T05:53:33.784Z,14.79
2022-10-28T05:56:00.200Z,14.96
2022-10-28T05:58:26.534Z,15.12
2022-10-28T06:00:52.873Z,15.29
2022-10-28T06:03:19.287Z,15.44
2022-10-28T06:05:45.570Z,15.59
2022-10-28T06:08:11.894Z,15.74
2022-10-28T06:10:38.211Z,15.90
2022-10-28T06:13:03.048Z,16.07
2022-10-28T06:15:29.406Z,16.29
2022-10-28T06:17:55.753Z,16.55
2022-10-28T06:20:22.114Z,16.78
2022-10-28T06:22:48.440Z,16.92
2022-10-28T06:25:14.761Z,17.01
2022-10-28T06:27:41.122Z,17.13
2022-10-28T06:30:07.471Z,17.26
2022-10-28T06:32:33.800Z,17.41
2022-10-28T06:35:00.158Z,17.56
2022-10-28T06:37:26.481Z,17.75
2022-10-28T06:39:52.834Z,17.92
2022-10-28T06:42:19.178Z,18.15
2022-10-28T06:44:45.505Z,18.51
2022-10-28T06:47:13.366Z,18.88
2022-10-28T06:49:39.703Z,19.27
2022-10-28T06:52:06.045Z,19.59
2022-10-28T06:54:32.443Z,19.85
2022-10-28T06:56:58.763Z,19.84
2022-10-28T06:59:25.083Z,19.76
2022-10-28T07:01:51.536Z,19.82
2022-10-28T07:04:17.737Z,19.94
2022-10-28T07:06:46.357Z,20.03
2022-10-28T07:09:10.384Z,20.15
2022-10-28T07:11:36.708Z,20.31
2022-10-28T07:14:03.092Z,20.45
2022-10-28T07:16:29.402Z,20.66
2022-10-28T07:18:55.749Z,20.83
2022-10-28T07:21:22.094Z,21.02
2022-10-28T07:23:48.439Z,21.28
2022-10-28T07:26:14.781Z,21.47
2022-10-28T07:28:41.124Z,21.62
2022-10-28T07:31:07.496Z,21.75
2022-10-28T07:33:33.783Z,21.88
2022-10-28T07:36:00.104Z,21.85
2022-10-28T07:38:26.454Z,21.93
2022-10-28T07:40:52.793Z,22.11
2022-10-28T07:43:19.100Z,22.36
2022-10-28T07:45:45.467Z,22.59
2022-10-28T07:48:11.826Z,22.91
2022-10-28T07:50:38.144Z,23.04
2022-10-28T07:53:04.556Z,23.24
2022-10-28T07:55:30.874Z,23.53
2022-10-28T07:57:57.472Z,23.63
2022-10-28T08:00:29.431Z,23.47
2022-10-28T08:02:55.798Z,23.48
2022-10-28T08:05:22.148Z,23.64
2022-10-28T08:07:50.334Z,23.85
2022-10-28T08:10:16.686Z,24.08
2022-10-28T08:12:43.007Z,24.22
2022-10-28T08:15:09.392Z,24.45
2022-10-28T08:17:35.759Z,24.67
2022-10-28T08:20:02.104Z,24.73
2022-10-28T08:22:28.435Z,24.91
2022-10-28T08:24:54.778Z,24.99
2022-10-28T08:27:21.098Z,25.11
2022-10-28T08:29:47.429Z,25.23
2022-10-28T08:32:13.839Z,25.46
2022-10-28T08:34:42.658Z,25.74
2022-10-28T08:37:06.536Z,25.86
2022-10-28T08:39:32.856Z,25.92
2022-10-28T08:41:59.252Z,26.05
2022-10-28T08:44:25.501Z,26.12
2022-10-28T08:46:51.881Z,26.29
2022-10-28T08:49:18.200Z,26.38
2022-10-28T08:51:44.548Z,26.29
2022-10-28T08:54:10.918Z,26.35
2022-10-28T08:56:37.289Z,26.17
2022-10-28T08:59:03.642Z,26.07
2022-10-28T09:01:30.147Z,26.26
2022-10-28T09:03:56.314Z,26.46
2022-10-28T09:06:22.701Z,26.74
2022-10-28T09:08:49.045Z,26.75
2022-10-28T09:11:15.380Z,26.61
2022-10-28T09:13:41.712Z,26.66
2022-10-28T09:16:10.198Z,26.82
2022-10-28T09:18:34.448Z,26.99
2022-10-28T09:21:00.798Z,27.11
2022-10-28T09:23:27.260Z,27.07
2022-10-28T09:25:53.585Z,27.20
2022-10-28T09:28:19.933Z,27.41
2022-10-28T09:30:46.305Z,27.58
2022-10-28T09:33:12.689Z,27.82
2022-10-28T09:35:39.035Z,28.20
2022-10-28T09:38:05.359Z,28.38
2022-10-28T09:40:31.713Z,28.31
2022-10-28T09:42:58.061Z,28.47
2022-10-28T09:45:24.378Z,28.73
2022-10-28T09:47:50.909Z,28.99
2022-10-28T09:50:17.073Z,29.18
2022-10-28T09:52:43.415Z,29.34
2022-10-28T09:55:09.741Z,29.57
2022-10-28T09:57:36.078Z,29.74
2022-10-28T10:00:02.489Z,29.84
2022-10-28T10:02:28.868Z,29.72
2022-10-28T10:04:55.276Z,29.59
2022-10-28T10:07:21.603Z,29.46
2022-10-28T10:09:48.044Z,29.41
2022-10-28T10:12:14.390Z,29.51
2022-10-28T10:14:40.705Z,29.65
2022-10-28T10:17:07.083Z,29.66
2022-10-28T10:19:33.436Z,29.61
2022-10-28T10:21:59.780Z,29.70
2022-10-28T10:24:26.138Z,29.79
2022-10-28T10:26:52.449Z,29.96
2022-10-28T10:29:18.788Z,30.23
2022-10-28T10:31:45.138Z,30.53
2022-10-28T10:34:11.475Z,30.75
2022-10-28T10:36:37.797Z,30.83
2022-10-28T10:39:04.123Z,30.94
2022-10-28T10:41:30.498Z,31.04
2022-10-28T10:43:56.909Z,31.00
2022-10-28T10:46:23.236Z,30.98
2022-10-28T10:48:49.632Z,30.94
2022-10-28T10:51:15.950Z,30.74
2022-10-28T10:53:42.293Z,30.55
2022-10-28T10:56:08.653Z,30.36
2022-10-28T10:58:35.022Z,30.25
2022-10-28T11:01:01.365Z,30.44
2022-10-28T11:03:27.690Z,30.71
2022-10-28T11:06:05.496Z,30.96
2022-10-28T11:08:20.383Z,31.08
2022-10-28T11:10:46.725Z,31.11
2022-10-28T11:13:13.064Z,31.07
2022-10-28T11:15:39.408Z,30.98
2022-10-28T11:18:05.750Z,30.96
2022-10-28T11:20:32.098Z,30.64
2022-10-28T11:22:58.411Z,30.55
2022-10-28T11:25:24.764Z,30.72
2022-10-28T11:27:55.335Z,30.94
2022-10-28T11:30:17.445Z,31.08
2022-10-28T11:32:54.634Z,31.14
2022-10-28T11:35:10.154Z,31.22
2022-10-28T11:37:36.481Z,31.22
2022-10-28T11:40:02.809Z,31.23
2022-10-28T11:42:29.203Z,31.19
2022-10-28T11:44:55.677Z,31.29
2022-10-28T11:47:21.875Z,31.28
2022-10-28T11:49:48.226Z,31.35
2022-10-28T11:52:14.565Z,31.24
2022-10-28T11:54:40.886Z,31.00
2022-10-28T11:57:07.252Z,31.02
2022-10-28T11:59:33.569Z,31.07
2022-10-28T12:02:00.014Z,31.06
2022-10-28T12:04:26.255Z,31.01
2022-10-28T12:06:52.605Z,30.86
2022-10-28T12:09:19.031Z,30.59
2022-10-28T12:11:45.422Z,30.28
2022-10-28T12:14:11.716Z,30.31
2022-10-28T12:16:38.091Z,30.48
2022-10-28T12:19:04.432Z,30.64
2022-10-28T12:21:30.857Z,30.74
2022-10-28T12:23:57.084Z,30.71
2022-10-28T12:26:23.402Z,30.59
2022-10-28T12:28:49.775Z,30.26
2022-10-28T12:31:16.124Z,30.16
2022-10-28T12:33:42.448Z,30.22
2022-10-28T12:36:08.788Z,30.31
2022-10-28T12:38:35.114Z,30.37
2022-10-28T12:41:01.454Z,30.34
2022-10-28T12:43:27.808Z,30.38
2022-10-28T12:45:54.148Z,30.29
2022-10-28T12:48:20.518Z,30.13
2022-10-28T12:50:46.883Z,29.94
2022-10-28T12:53:13.222Z,29.79
2022-10-28T12:55:39.579Z,29.70
2022-10-28T12:58:05.908Z,29.62
2022-10-28T13:00:32.250Z,29.64
2022-10-28T13:02:58.606Z,29.68
2022-10-28T13:05:24.928Z,29.71
2022-10-28T13:07:53.544Z,29.58
2022-10-28T13:10:17.620Z,29.47
2022-10-28T13:12:43.918Z,29.44
2022-10-28T13:15:10.349Z,29.45
2022-10-28T13:17:36.578Z,29.44
2022-10-28T13:20:02.925Z,29.38
2022-10-28T13:22:29.275Z,29.29
2022-10-28T13:24:55.594Z,29.23
2022-10-28T13:27:22.021Z,29.18
2022-10-28T13:29:48.305Z,29.05
2022-10-28T13:32:14.640Z,28.88
2022-10-28T13:34:40.963Z,28.54
2022-10-28T13:37:07.313Z,28.23
2022-10-28T13:39:33.655Z,27.99
2022-10-28T13:41:59.977Z,27.73
2022-10-28T13:44:26.331Z,27.52
2022-10-28T13:46:52.667Z,27.27
2022-10-28T13:49:19.011Z,27.10
2022-10-28T13:51:45.330Z,26.93
2022-10-28T13:54:11.678Z,26.88
2022-10-28T13:56:38.091Z,26.87
2022-10-28T13:59:04.319Z,26.86
2022-10-28T14:01:30.852Z,26.76
2022-10-28T14:03:57.054Z,26.66
2022-10-28T14:06:23.414Z,26.52
2022-10-28T14:08:49.751Z,26.39
2022-10-28T14:11:16.096Z,26.38
2022-10-28T14:13:42.441Z,26.30
2022-10-28T14:16:11.695Z,26.27
2022-10-28T14:18:43.826Z,26.17
2022-10-28T14:21:01.750Z,25.95
2022-10-28T14:23:27.830Z,25.72
2022-10-28T14:25:54.179Z,25.62
2022-10-28T14:28:20.526Z,25.42
2022-10-28T14:30:46.862Z,25.25
2022-10-28T14:33:13.215Z,25.16
2022-10-28T14:35:39.566Z,25.16
2022-10-28T14:38:05.912Z,24.98
2022-10-28T14:40:32.268Z,24.94
2022-10-28T14:42:58.613Z,24.81
2022-10-28T14:45:24.934Z,24.86
2022-10-28T14:47:51.334Z,24.75
2022-10-28T14:50:17.579Z,24.57
2022-10-28T14:52:43.944Z,24.46
2022-10-28T14:55:10.294Z,24.36
2022-10-28T14:57:36.627Z,24.27
2022-10-28T15:00:02.967Z,24.16
2022-10-28T15:02:29.411Z,24.04
2022-10-28T15:04:55.654Z,23.98
2022-10-28T15:07:21.979Z,23.92
2022-10-28T15:09:48.323Z,23.89
2022-10-28T15:12:14.698Z,23.91
2022-10-28T15:14:41.045Z,23.89
2022-10-28T15:17:07.371Z,23.84
2022-10-28T15:19:33.713Z,23.76
2022-10-28T15:22:00.049Z,23.71
2022-10-28T15:24:26.391Z,23.65
2022-10-28T15:26:52.741Z,23.59
2022-10-28T15:29:19.117Z,23.51
2022-10-28T15:31:45.439Z,23.44
2022-10-28T15:34:11.761Z,23.31
2022-10-28T15:36:38.176Z,23.20
2022-10-28T15:39:04.430Z,23.11
2022-10-28T15:41:30.762Z,23.00
2022-10-28T15:43:57.143Z,22.90
2022-10-28T15:46:23.469Z,22.84
2022-10-28T15:48:49.826Z,22.77
2022-10-28T15:51:16.189Z,22.69
2022-10-28T15:53:42.543Z,22.64
2022-10-28T15:56:08.885Z,22.59
2022-10-28T15:58:35.231Z,22.52
2022-10-28T16:01:01.696Z,22.44
2022-10-28T16:05:54.300Z,22.33
2022-10-28T16:08:20.639Z,22.29
2022-10-28T16:10:46.961Z,22.23
2022-10-28T16:13:13.306Z,22.17
2022-10-28T16:15:39.689Z,22.14
2022-10-28T16:18:06.022Z,22.07
2022-10-28T16:20:32.438Z,22.00
2022-10-28T16:22:58.712Z,22.05
2022-10-28T16:25:25.100Z,22.11
2022-10-28T16:27:51.679Z,21.98
2022-10-28T16:30:17.822Z,21.86
2022-10-28T16:32:44.143Z,21.80
2022-10-28T16:35:10.466Z,21.64
2022-10-28T16:37:40.416Z,21.49
2022-10-28T16:40:03.186Z,21.37
2022-10-28T16:42:29.530Z,21.33
2022-10-28T16:44:55.853Z,21.27
2022-10-28T16:47:22.187Z,21.29
2022-10-28T16:49:52.392Z,21.32
2022-10-28T16:52:14.852Z,21.30
2022-10-28T16:54:41.205Z,21.25
2022-10-28T16:57:07.547Z,21.23
2022-10-28T16:59:33.869Z,21.27
2022-10-28T17:02:00.353Z,21.29
2022-10-28T17:04:26.636Z,21.22
2022-10-28T17:06:52.975Z,21.12
2022-10-28T17:09:19.298Z,21.01
2022-10-28T17:11:45.653Z,20.96
2022-10-28T17:14:12.016Z,21.02
2022-10-28T17:16:40.685Z,20.96
2022-10-28T17:19:04.701Z,20.92
2022-10-28T17:21:31.037Z,20.90
2022-10-28T17:23:57.378Z,20.84
2022-10-28T17:26:23.688Z,20.86
2022-10-28T17:28:50.029Z,20.87
2022-10-28T17:31:19.184Z,20.88
2022-10-28T17:33:42.777Z,20.81
2022-10-28T17:36:09.146Z,20.62
2022-10-28T17:38:35.541Z,20.51
2022-10-28T17:41:01.859Z,20.48
2022-10-28T17:43:28.190Z,20.43
2022-10-28T17:45:54.516Z,20.34
2022-10-28T17:48:20.919Z,20.30
2022-10-28T17:50:47.227Z,20.35
2022-10-28T17:53:13.568Z,20.35
2022-10-28T17:55:39.904Z,20.28
2022-10-28T17:58:06.291Z,20.18
2022-10-28T18:00:32.616Z,20.10
2022-10-28T18:02:59.097Z,20.01
2022-10-28T18:05:25.389Z,19.96
2022-10-28T18:07:51.971Z,19.97
2022-10-28T18:10:18.106Z,19.96
2022-10-28T18:12:44.447Z,19.98
2022-10-28T18:15:10.788Z,19.83
2022-10-28T18:17:37.133Z,19.77
2022-10-28T18:20:03.482Z,19.77
2022-10-28T18:22:29.851Z,19.72
2022-10-28T18:24:56.237Z,19.65
2022-10-28T18:27:22.600Z,19.64
2022-10-28T18:29:49.005Z,19.57
2022-10-28T18:32:15.346Z,19.51
2022-10-28T18:34:41.731Z,19.33
2022-10-28T18:37:08.013Z,19.27
2022-10-28T18:39:34.349Z,19.30
2022-10-28T18:42:00.693Z,19.30
2022-10-28T18:44:27.039Z,19.20
2022-10-28T18:46:53.376Z,19.11
2022-10-28T18:49:19.722Z,18.96
2022-10-28T18:51:46.447Z,18.81
2022-10-28T18:54:12.787Z,18.78
2022-10-28T18:56:39.114Z,18.77
2022-10-28T18:59:05.448Z,18.84
2022-10-28T19:01:31.973Z,18.98
2022-10-28T19:03:58.111Z,19.00
2022-10-28T19:06:24.565Z,19.02
2022-10-28T19:08:50.881Z,18.87
2022-10-28T19:11:17.225Z,18.92
2022-10-28T19:13:43.558Z,18.95
2022-10-28T19:16:09.983Z,18.88
2022-10-28T19:18:36.227Z,18.78
2022-10-28T19:21:02.629Z,18.77
2022-10-28T19:23:28.989Z,18.70
2022-10-28T19:25:55.318Z,18.65
2022-10-28T19:28:21.640Z,18.48
2022-10-28T19:30:47.987Z,18.36
2022-10-28T19:33:14.398Z,18.44
2022-10-28T19:35:40.723Z,18.55
2022-10-28T19:38:07.068Z,18.52
2022-10-28T19:40:33.537Z,18.50
2022-10-28T19:42:59.916Z,18.53
2022-10-28T19:45:26.253Z,18.46
2022-10-28T19:47:52.904Z,18.32
2022-10-28T19:50:18.965Z,18.24
2022-10-28T19:52:45.311Z,18.31
2022-10-28T19:55:14.901Z,18.26
2022-10-28T19:57:37.991Z,18.10
2022-10-28T20:00:04.357Z,18.06
2022-10-28T20:02:30.810Z,18.09
2022-10-28T20:04:57.058Z,18.03
2022-10-28T20:07:23.409Z,17.91
2022-10-28T20:09:49.821Z,17.83
2022-10-28T20:12:16.089Z,17.80
2022-10-28T20:14:42.417Z,17.77
2022-10-28T20:17:08.740Z,17.74
2022-10-28T20:19:35.131Z,17.76
2022-10-28T20:22:01.446Z,17.85
2022-10-28T20:24:27.796Z,17.92
2022-10-28T20:26:54.145Z,17.70
2022-10-28T20:29:20.491Z,17.49
2022-10-28T20:31:46.811Z,17.35
2022-10-28T20:34:13.168Z,17.25
2022-10-28T20:36:39.490Z,17.17
2022-10-28T20:39:05.815Z,17.10
2022-10-28T20:41:32.193Z,17.07
2022-10-28T20:43:58.514Z,17.05
2022-10-28T20:46:24.838Z,17.04
2022-10-28T20:48:51.165Z,17.03
2022-10-28T20:51:17.504Z,17.01
2022-10-28T20:53:43.847Z,16.96
2022-10-28T20:56:10.181Z,16.89
2022-10-28T20:58:36.512Z,16.84
2022-10-28T21:01:02.831Z,16.83
2022-10-28T21:03:29.223Z,16.79
2022-10-28T21:05:55.548Z,16.69
2022-10-28T21:08:21.897Z,16.60
2022-10-28T21:10:48.240Z,16.52
2022-10-28T21:13:14.686Z,16.47
2022-10-28T21:15:41.006Z,16.42
2022-10-28T21:18:07.412Z,16.37
2022-10-28T21:20:33.759Z,16.33
2022-10-28T21:23:00.089Z,16.36
2022-10-28T21:25:26.427Z,16.51
2022-10-28T21:27:52.791Z,16.59
2022-10-28T21:30:19.156Z,16.63
2022-10-28T21:32:45.435Z,16.66
2022-10-28T21:35:11.792Z,16.61
2022-10-28T21:37:38.117Z,16.55
2022-10-28T21:40:04.524Z,16.56
2022-10-28T21:42:30.846Z,16.53
2022-10-28T21:44:57.195Z,16.51
2022-10-28T21:47:23.541Z,16.35
2022-10-28T21:49:49.877Z,16.20
2022-10-28T21:52:16.208Z,16.06
2022-10-28T21:54:42.598Z,15.97
2022-10-28T21:57:08.906Z,15.90
2022-10-28T21:59:35.223Z,15.84
2022-10-28T22:02:01.664Z,15.85
2022-10-28T22:04:27.896Z,15.86
2022-10-28T22:06:54.241Z,15.86
2022-10-28T22:09:20.580Z,15.79
2022-10-28T22:11:46.903Z,15.72
2022-10-28T22:14:13.286Z,15.65
2022-10-28T22:16:39.608Z,15.60
2022-10-28T22:19:05.955Z,15.55
2022-10-28T22:21:32.297Z,15.50
2022-10-28T22:23:58.634Z,15.46
2022-10-28T22:26:25.018Z,15.42
2022-10-28T22:28:51.332Z,15.42
2022-10-28T22:31:17.658Z,15.43
2022-10-28T22:33:44.066Z,15.43
2022-10-28T22:36:10.334Z,15.41
2022-10-28T22:38:36.656Z,15.36
2022-10-28T22:41:02.984Z,15.31
2022-10-28T22:43:29.332Z,15.24
2022-10-28T22:45:55.676Z,15.19
2022-10-28T22:48:21.995Z,15.16
2022-10-28T22:50:48.333Z,15.12
2022-10-28T22:53:14.655Z,15.10
2022-10-28T22:55:40.981Z,15.13
2022-10-28T22:58:07.327Z,15.12
2022-10-28T23:00:33.646Z,15.10
2022-10-28T23:03:00.415Z,15.08
2022-10-28T23:05:26.335Z,15.02
2022-10-28T23:07:52.678Z,15.07
2022-10-28T23:10:19.044Z,15.08
2022-10-28T23:12:45.384Z,15.00
2022-10-28T23:15:11.725Z,14.90
2022-10-28T23:17:38.043Z,14.81
2022-10-28T23:20:04.387Z,14.74
2022-10-28T23:22:30.762Z,14.72
2022-10-28T23:24:57.107Z,14.69
2022-10-28T23:27:23.448Z,14.65
2022-10-28T23:29:49.802Z,14.61
2022-10-28T23:32:16.129Z,14.63
2022-10-28T23:34:42.453Z,14.70
2022-10-28T23:37:08.775Z,14.77
2022-10-28T23:39:35.124Z,14.68
2022-10-28T23:42:01.460Z,14.60
2022-10-28T23:44:27.782Z,14.57
2022-10-28T23:46:54.121Z,14.52
2022-10-28T23:49:20.458Z,14.40
2022-10-28T23:51:46.808Z,14.31
2022-10-28T23:54:13.132Z,14.25
2022-10-28T23:56:39.474Z,14.19
2022-10-28T23:59:05.784Z,14.12
